Time;durP1;ratioP1;P1;durP2;ratioP2;P2;SDS_P1;SDS_P2;PMS_P1;PMS_P2;Temp;Humidity;BMP_temperature;BMP_pressure;BME280_temperature;BME280_humidity;BME280_pressure;Samples;Min_cycle;Max_cycle;Signal;HPM_P1;HPM_P2
2021/01/31 00:00:20;;;;;;;;;;;-0.30;99.90;;;;;;4960348;28;19923;-62
2021/01/31 00:02:49;;;;;;;;;;;-0.40;99.90;;;;;;4959682;28;19957;-62
2021/01/31 00:05:17;;;;;;;;;;;-0.30;99.90;;;;;;4959844;29;19926;-63
2021/01/31 00:07:44;;;;;;;;;;;-0.30;99.90;;;;;;4959453;28;20009;-63
2021/01/31 00:10:12;;;;;;;;;;;-0.30;99.90;;;;;;4959566;29;19958;-63
2021/01/31 00:12:40;;;;;;;;;;;-0.30;99.90;;;;;;4959942;29;19946;-62
2021/01/31 00:15:09;;;;;;;;;;;-0.30;99.90;;;;;;4957655;28;19945;-63
2021/01/31 00:17:36;;;;;;;;;;;-0.30;99.90;;;;;;4941680;29;19926;-63
2021/01/31 00:20:04;;;;;;;;;;;-0.30;99.90;;;;;;4959905;29;19946;-62
2021/01/31 00:22:31;;;;;;;;;;;-0.20;99.90;;;;;;4959625;29;19923;-63
2021/01/31 00:24:59;;;;;;;;;;;-0.30;99.90;;;;;;4941887;29;20259;-63
2021/01/31 00:27:26;;;;;;;;;;;-0.30;99.90;;;;;;4959678;29;20374;-63
2021/01/31 00:29:54;;;;;;;;;;;-0.30;99.90;;;;;;4959028;29;19929;-63
2021/01/31 00:32:22;;;;;;;;;;;-0.20;99.90;;;;;;4958368;28;20298;-63
2021/01/31 00:34:50;;;;;;;;;;;-0.30;99.90;;;;;;4959475;29;19923;-62
2021/01/31 00:37:17;;;;;;;;;;;-0.30;99.90;;;;;;4959631;28;19985;-63
2021/01/31 00:39:47;;;;;;;;;;;-0.30;99.90;;;;;;4942681;29;19976;-63
2021/01/31 00:42:16;;;;;;;;;;;-0.30;99.90;;;;;;4958057;29;19922;-63
2021/01/31 00:44:44;;;;;;;;;;;-0.40;99.90;;;;;;4959100;29;19926;-63
2021/01/31 00:47:12;;;;;;;;;;;-0.40;99.90;;;;;;4958130;28;19923;-62
2021/01/31 00:49:39;;;;;;;;;;;-0.30;99.90;;;;;;4950319;29;19926;-62
2021/01/31 00:52:06;;;;;;;;;;;-0.40;99.90;;;;;;4964988;29;19933;-62
2021/01/31 00:54:35;;;;;;;;;;;-0.40;99.90;;;;;;4942740;29;20352;-62
2021/01/31 00:57:05;;;;;;;;;;;-0.40;99.90;;;;;;4941851;29;19922;-62
2021/01/31 00:59:33;;;;;;;;;;;-0.40;99.90;;;;;;4941478;29;19922;-63
2021/01/31 01:02:05;;;;;;;;;;;-0.40;99.90;;;;;;4958261;28;19922;-62
2021/01/31 01:04:33;;;;;;;;;;;-0.40;99.90;;;;;;4942251;29;19980;-62
2021/01/31 01:07:06;;;;;;;;;;;-0.50;99.90;;;;;;4941589;28;20339;-62
2021/01/31 01:09:34;;;;;;;;;;;-0.50;99.90;;;;;;4959181;29;19929;-62
2021/01/31 01:12:01;;;;;;;;;;;-0.50;99.90;;;;;;4959852;29;19954;-62
2021/01/31 01:14:30;;;;;;;;;;;-0.50;99.90;;;;;;4953128;29;20013;-63
2021/01/31 01:16:58;;;;;;;;;;;-0.50;99.90;;;;;;4962553;28;19922;-63
2021/01/31 01:19:25;;;;;;;;;;;-0.50;99.90;;;;;;4962939;29;20050;-63
2021/01/31 01:21:56;;;;;;;;;;;-0.50;99.90;;;;;;4960189;29;19922;-63
2021/01/31 01:24:24;;;;;;;;;;;-0.40;99.90;;;;;;4959048;29;19923;-63
2021/01/31 01:26:52;;;;;;;;;;;-0.40;99.90;;;;;;4959194;29;19922;-63
2021/01/31 01:29:19;;;;;;;;;;;-0.40;99.90;;;;;;4959160;29;20318;-64
2021/01/31 01:31:46;;;;;;;;;;;-0.40;99.90;;;;;;4958428;28;20013;-63
2021/01/31 01:34:15;;;;;;;;;;;-0.40;99.90;;;;;;4959366;29;19929;-63
2021/01/31 01:36:43;;;;;;;;;;;-0.30;99.90;;;;;;4958914;29;19922;-63
2021/01/31 01:39:11;;;;;;;;;;;-0.40;99.90;;;;;;4959329;29;19922;-63
2021/01/31 01:41:40;;;;;;;;;;;-0.40;99.90;;;;;;4959456;29;19953;-62
2021/01/31 01:44:07;;;;;;;;;;;-0.30;99.90;;;;;;4960199;29;19933;-63
2021/01/31 01:46:36;;;;;;;;;;;-0.30;99.90;;;;;;4959221;28;20366;-63
2021/01/31 01:49:06;;;;;;;;;;;-0.30;99.90;;;;;;4960930;29;19954;-63
2021/01/31 01:51:37;;;;;;;;;;;-0.30;99.90;;;;;;4969269;29;19923;-63
2021/01/31 01:54:06;;;;;;;;;;;-0.30;99.90;;;;;;4968782;29;19923;-63
2021/01/31 01:56:37;;;;;;;;;;;-0.30;99.90;;;;;;4958692;28;19938;-63
2021/01/31 01:59:07;;;;;;;;;;;-0.30;99.90;;;;;;4958185;29;19922;-63
2021/01/31 02:01:35;;;;;;;;;;;-0.30;99.90;;;;;;4957236;28;19922;-63
2021/01/31 02:04:02;;;;;;;;;;;-0.30;99.90;;;;;;4957680;29;19922;-63
2021/01/31 02:06:30;;;;;;;;;;;-0.30;99.90;;;;;;4957836;29;19922;-63
2021/01/31 02:08:59;;;;;;;;;;;-0.30;99.90;;;;;;4957746;29;19937;-63
2021/01/31 02:11:27;;;;;;;;;;;-0.30;99.90;;;;;;4957342;29;20047;-63
2021/01/31 02:13:58;;;;;;;;;;;-0.30;99.90;;;;;;4957515;29;20357;-63
2021/01/31 02:16:28;;;;;;;;;;;-0.30;99.90;;;;;;4954906;28;19922;-63
2021/01/31 02:19:01;;;;;;;;;;;-0.30;99.90;;;;;;4959832;28;19923;-63
2021/01/31 02:21:54;;;;;;;;;;;-0.30;99.90;;;;;;4961271;29;19930;-63
2021/01/31 02:24:31;;;;;;;;;;;-0.30;99.90;;;;;;4961422;29;19922;-63
2021/01/31 02:27:04;;;;;;;;;;;-0.30;99.90;;;;;;4961695;29;19922;-63
2021/01/31 02:29:47;;;;;;;;;;;-0.30;99.90;;;;;;4944569;29;19923;-63
2021/01/31 02:32:30;;;;;;;;;;;-0.30;99.90;;;;;;4960337;28;19923;-62
2021/01/31 02:35:01;;;;;;;;;;;-0.30;99.90;;;;;;4961741;29;19922;-63
2021/01/31 02:37:33;;;;;;;;;;;-0.30;99.90;;;;;;4961859;29;19923;-63
2021/01/31 02:40:07;;;;;;;;;;;-0.20;99.90;;;;;;4961159;29;20013;-62
2021/01/31 02:42:38;;;;;;;;;;;-0.30;99.90;;;;;;4961206;29;19930;-63
2021/01/31 02:45:17;;;;;;;;;;;-0.20;99.90;;;;;;4960471;28;19958;-63
2021/01/31 02:47:49;;;;;;;;;;;-0.20;99.90;;;;;;4959816;28;19930;-63
2021/01/31 02:50:19;;;;;;;;;;;-0.20;99.90;;;;;;4961008;29;19922;-62
2021/01/31 02:52:51;;;;;;;;;;;-0.20;99.90;;;;;;4943157;29;19931;-63
2021/01/31 02:55:43;;;;;;;;;;;-0.20;99.90;;;;;;4961119;29;20017;-62
2021/01/31 02:58:13;;;;;;;;;;;-0.20;99.90;;;;;;4961075;29;19930;-62
2021/01/31 03:00:45;;;;;;;;;;;-0.20;99.90;;;;;;4965795;28;20362;-63
2021/01/31 03:03:15;;;;;;;;;;;-0.10;99.90;;;;;;4979766;28;19922;-62
2021/01/31 03:05:48;;;;;;;;;;;-0.10;99.90;;;;;;4981012;28;19922;-63
2021/01/31 03:08:18;;;;;;;;;;;-0.10;99.90;;;;;;4980077;28;20004;-63
2021/01/31 03:10:49;;;;;;;;;;;-0.10;99.90;;;;;;4963406;28;19933;-62
2021/01/31 03:13:19;;;;;;;;;;;-0.10;99.90;;;;;;4980884;28;19953;-62
2021/01/31 03:15:51;;;;;;;;;;;-0.10;99.90;;;;;;4978213;28;19922;-63
2021/01/31 03:18:20;;;;;;;;;;;-0.20;99.90;;;;;;4980049;28;19922;-63
2021/01/31 03:20:51;;;;;;;;;;;-0.20;99.90;;;;;;4979760;28;19922;-63
2021/01/31 03:23:24;;;;;;;;;;;-0.20;99.90;;;;;;4979920;28;20370;-62
2021/01/31 03:25:54;;;;;;;;;;;-0.20;99.90;;;;;;4986645;28;19921;-63
2021/01/31 03:28:22;;;;;;;;;;;-0.20;99.90;;;;;;4984905;28;20469;-62
2021/01/31 03:30:49;;;;;;;;;;;-0.20;99.90;;;;;;4978205;28;20013;-63
2021/01/31 03:33:18;;;;;;;;;;;-0.20;99.90;;;;;;4979857;28;19933;-63
2021/01/31 03:35:47;;;;;;;;;;;-0.20;99.90;;;;;;4962241;28;19957;-62
2021/01/31 03:38:17;;;;;;;;;;;-0.30;99.90;;;;;;4979862;28;20370;-63
2021/01/31 03:40:47;;;;;;;;;;;-0.20;99.90;;;;;;4979697;28;19922;-63
2021/01/31 03:43:15;;;;;;;;;;;-0.20;99.90;;;;;;4979834;28;19922;-63
2021/01/31 03:45:45;;;;;;;;;;;-0.20;99.90;;;;;;4979566;28;20028;-63
2021/01/31 03:48:15;;;;;;;;;;;-0.20;99.90;;;;;;4979080;28;19957;-63
2021/01/31 03:50:42;;;;;;;;;;;-0.20;99.90;;;;;;4979826;28;19928;-63
2021/01/31 03:53:09;;;;;;;;;;;-0.20;99.90;;;;;;4979289;28;19967;-62
2021/01/31 03:55:45;;;;;;;;;;;-0.20;99.90;;;;;;4962278;28;19922;-63
2021/01/31 03:58:15;;;;;;;;;;;-0.20;99.90;;;;;;4978724;28;19976;-63
2021/01/31 04:00:45;;;;;;;;;;;-0.20;99.90;;;;;;4978982;28;19930;-63
2021/01/31 04:03:13;;;;;;;;;;;-0.20;99.90;;;;;;4978710;28;19928;-62
2021/01/31 04:05:44;;;;;;;;;;;-0.20;99.90;;;;;;4979219;28;19953;-63
2021/01/31 04:08:12;;;;;;;;;;;-0.20;99.90;;;;;;4978779;28;20373;-63
2021/01/31 04:10:42;;;;;;;;;;;-0.20;99.90;;;;;;4978517;28;20070;-63
2021/01/31 04:13:10;;;;;;;;;;;-0.10;99.90;;;;;;4979000;28;20378;-63
2021/01/31 04:15:40;;;;;;;;;;;-0.20;99.90;;;;;;4978741;28;19932;-62
2021/01/31 04:18:09;;;;;;;;;;;-0.20;99.90;;;;;;4978930;28;19926;-63
2021/01/31 04:20:36;;;;;;;;;;;-0.20;99.90;;;;;;4962444;28;19922;-63
2021/01/31 04:23:03;;;;;;;;;;;-0.20;99.90;;;;;;4978663;28;19984;-63
2021/01/31 04:25:30;;;;;;;;;;;-0.10;99.90;;;;;;4978292;28;19953;-63
2021/01/31 04:28:04;;;;;;;;;;;-0.20;99.90;;;;;;4979328;28;19967;-63
2021/01/31 04:30:32;;;;;;;;;;;-0.20;99.90;;;;;;4978521;28;19922;-63
2021/01/31 04:33:02;;;;;;;;;;;-0.20;99.90;;;;;;4961073;28;20013;-62
2021/01/31 04:35:30;;;;;;;;;;;-0.20;99.90;;;;;;4978980;28;20382;-62
2021/01/31 04:37:57;;;;;;;;;;;-0.20;99.90;;;;;;4978628;28;19965;-63
2021/01/31 04:40:24;;;;;;;;;;;-0.30;99.90;;;;;;4979017;28;19928;-62
2021/01/31 04:42:52;;;;;;;;;;;-0.20;99.90;;;;;;4978001;28;20436;-61
2021/01/31 04:45:20;;;;;;;;;;;-0.30;99.90;;;;;;4960992;28;19976;-62
2021/01/31 04:47:54;;;;;;;;;;;-0.30;99.90;;;;;;4977715;28;19922;-63
2021/01/31 04:50:25;;;;;;;;;;;-0.40;99.90;;;;;;4978947;28;19968;-63
2021/01/31 04:53:08;;;;;;;;;;;-0.30;99.90;;;;;;4979171;28;19965;-63
2021/01/31 04:55:57;;;;;;;;;;;-0.30;99.90;;;;;;4979167;28;19922;-62
2021/01/31 04:58:26;;;;;;;;;;;-0.40;99.90;;;;;;4973744;28;20396;-63
2021/01/31 05:00:58;;;;;;;;;;;-0.30;99.90;;;;;;4977785;28;19926;-62
2021/01/31 05:03:25;;;;;;;;;;;-0.40;99.90;;;;;;4979296;28;19969;-63
2021/01/31 05:05:56;;;;;;;;;;;-0.40;99.90;;;;;;4978803;28;19922;-63
2021/01/31 05:08:28;;;;;;;;;;;-0.30;99.90;;;;;;4979065;28;19922;-62
2021/01/31 05:10:58;;;;;;;;;;;-0.30;99.90;;;;;;4955686;29;19965;-62
2021/01/31 05:13:29;;;;;;;;;;;-0.30;99.90;;;;;;4941457;29;19965;-63
2021/01/31 05:16:02;;;;;;;;;;;-0.30;99.90;;;;;;4940263;29;20114;-63
2021/01/31 05:18:32;;;;;;;;;;;-0.40;99.90;;;;;;4940190;29;19929;-63
2021/01/31 05:21:04;;;;;;;;;;;-0.30;99.90;;;;;;4943353;29;19922;-64
2021/01/31 05:23:58;;;;;;;;;;;-0.40;99.90;;;;;;4945408;29;19923;-63
2021/01/31 05:26:28;;;;;;;;;;;-0.40;99.90;;;;;;4947285;29;20391;-62
2021/01/31 05:28:58;;;;;;;;;;;-0.40;99.90;;;;;;4949387;29;19922;-63
2021/01/31 05:31:29;;;;;;;;;;;-0.40;99.90;;;;;;4952528;29;20279;-65
2021/01/31 05:33:58;;;;;;;;;;;-0.40;99.90;;;;;;4944156;29;19941;-63
2021/01/31 05:36:27;;;;;;;;;;;-0.40;99.90;;;;;;4955178;29;19923;-63
2021/01/31 05:38:54;;;;;;;;;;;-0.40;99.90;;;;;;4956136;29;19910;-63
2021/01/31 05:41:36;;;;;;;;;;;-0.40;99.90;;;;;;4955888;29;19923;-64
2021/01/31 05:44:04;;;;;;;;;;;-0.40;99.90;;;;;;4953759;29;19946;-66
2021/01/31 05:46:39;;;;;;;;;;;-0.40;99.90;;;;;;4942365;29;19923;-63
2021/01/31 05:49:09;;;;;;;;;;;-0.40;99.90;;;;;;4935681;29;19927;-63
2021/01/31 05:51:37;;;;;;;;;;;-0.40;99.90;;;;;;4929720;29;19927;-63
2021/01/31 05:54:20;;;;;;;;;;;-0.40;99.90;;;;;;4924116;29;20564;-65
2021/01/31 05:56:50;;;;;;;;;;;-0.40;99.90;;;;;;4924212;29;20351;-63
2021/01/31 05:59:18;;;;;;;;;;;-0.40;99.90;;;;;;4925789;29;19929;-63
2021/01/31 06:02:00;;;;;;;;;;;-0.40;99.90;;;;;;4924010;29;20007;-63
2021/01/31 06:04:28;;;;;;;;;;;-0.40;99.90;;;;;;4923396;29;19931;-63
2021/01/31 06:07:05;;;;;;;;;;;-0.40;99.90;;;;;;4923411;29;19930;-62
2021/01/31 06:09:38;;;;;;;;;;;-0.40;99.90;;;;;;4923758;29;19930;-63
2021/01/31 06:12:07;;;;;;;;;;;-0.40;99.90;;;;;;4959973;29;20285;-63
2021/01/31 06:14:36;;;;;;;;;;;-0.40;99.90;;;;;;4943702;29;19922;-66
2021/01/31 06:17:05;;;;;;;;;;;-0.30;99.90;;;;;;4959158;28;20316;-63
2021/01/31 06:19:34;;;;;;;;;;;-0.30;99.90;;;;;;4961423;29;19922;-62
2021/01/31 06:22:03;;;;;;;;;;;-0.30;99.90;;;;;;4962258;29;19933;-63
2021/01/31 06:24:39;;;;;;;;;;;-0.30;99.90;;;;;;4961360;29;19923;-63
2021/01/31 06:27:06;;;;;;;;;;;-0.30;99.90;;;;;;4961815;29;19922;-63
2021/01/31 06:29:37;;;;;;;;;;;-0.30;99.90;;;;;;4943664;29;19922;-63
2021/01/31 06:32:08;;;;;;;;;;;-0.30;99.90;;;;;;4976864;28;19937;-63
2021/01/31 06:34:35;;;;;;;;;;;-0.30;99.90;;;;;;4982382;28;19937;-64
2021/01/31 06:37:11;;;;;;;;;;;-0.30;99.90;;;;;;4994958;28;19929;-62
2021/01/31 06:39:47;;;;;;;;;;;-0.20;99.90;;;;;;4983641;28;19926;-63
2021/01/31 06:42:20;;;;;;;;;;;-0.30;99.90;;;;;;4980609;28;19922;-63
2021/01/31 06:44:53;;;;;;;;;;;-0.20;99.90;;;;;;4980814;28;20372;-63
2021/01/31 06:47:40;;;;;;;;;;;-0.20;99.90;;;;;;4979792;28;19929;-63
2021/01/31 06:50:12;;;;;;;;;;;-0.30;99.90;;;;;;4980457;28;19956;-63
2021/01/31 06:52:45;;;;;;;;;;;-0.30;99.90;;;;;;4980434;28;19993;-63
2021/01/31 06:55:34;;;;;;;;;;;-0.30;99.90;;;;;;4979791;28;19922;-63
2021/01/31 06:58:15;;;;;;;;;;;-0.30;99.90;;;;;;4948182;28;19922;-65
2021/01/31 07:00:53;;;;;;;;;;;-0.30;99.90;;;;;;4962923;28;19922;-63
2021/01/31 07:03:28;;;;;;;;;;;-0.30;99.90;;;;;;4962585;28;20340;-66
2021/01/31 07:06:02;;;;;;;;;;;-0.30;99.90;;;;;;4979757;28;19922;-65
2021/01/31 07:08:36;;;;;;;;;;;-0.30;99.90;;;;;;4979749;28;19985;-65
2021/01/31 07:11:12;;;;;;;;;;;-0.30;99.90;;;;;;4980020;28;19968;-63
2021/01/31 07:13:49;;;;;;;;;;;-0.20;99.90;;;;;;4979618;28;19928;-62
2021/01/31 07:16:21;;;;;;;;;;;-0.20;99.90;;;;;;4978667;28;19921;-62
2021/01/31 07:18:52;;;;;;;;;;;-0.20;99.90;;;;;;4980295;28;19932;-63
2021/01/31 07:21:21;;;;;;;;;;;-0.20;99.90;;;;;;4962380;28;20369;-63
2021/01/31 07:23:50;;;;;;;;;;;-0.20;99.90;;;;;;4980141;28;19921;-62
2021/01/31 07:26:29;;;;;;;;;;;-0.30;99.90;;;;;;4980035;28;19926;-63
2021/01/31 07:28:58;;;;;;;;;;;-0.30;99.90;;;;;;4962770;28;19988;-63
2021/01/31 07:31:38;;;;;;;;;;;-0.30;99.90;;;;;;4979000;28;19985;-63
2021/01/31 07:34:09;;;;;;;;;;;-0.30;99.90;;;;;;4980490;28;19922;-64
2021/01/31 07:36:40;;;;;;;;;;;-0.20;99.90;;;;;;4979682;28;19965;-62
2021/01/31 07:39:10;;;;;;;;;;;-0.20;99.90;;;;;;4979615;28;19977;-63
2021/01/31 07:41:40;;;;;;;;;;;-0.20;99.90;;;;;;4980156;28;19930;-64
2021/01/31 07:44:10;;;;;;;;;;;-0.20;99.90;;;;;;4980295;28;20109;-63
2021/01/31 07:46:38;;;;;;;;;;;-0.20;99.90;;;;;;4960564;28;19926;-63
2021/01/31 07:49:06;;;;;;;;;;;-0.10;99.90;;;;;;4978987;28;20004;-63
2021/01/31 07:51:51;;;;;;;;;;;-0.10;99.90;;;;;;4978476;28;19922;-63
2021/01/31 07:54:21;;;;;;;;;;;-0.20;99.90;;;;;;4978341;28;19923;-63
2021/01/31 07:56:52;;;;;;;;;;;-0.10;99.90;;;;;;4978252;28;19969;-63
2021/01/31 07:59:24;;;;;;;;;;;-0.10;99.90;;;;;;4962512;28;19922;-63
2021/01/31 08:01:52;;;;;;;;;;;-0.10;99.90;;;;;;4962221;28;19949;-63
2021/01/31 08:04:34;;;;;;;;;;;0.00;99.90;;;;;;4977499;28;19922;-63
2021/01/31 08:07:06;;;;;;;;;;;0.00;99.90;;;;;;4962222;28;19953;-63
2021/01/31 08:09:57;;;;;;;;;;;-0.10;99.90;;;;;;4977194;28;20367;-63
2021/01/31 08:12:40;;;;;;;;;;;0.00;99.90;;;;;;4958242;28;19922;-63
2021/01/31 08:15:13;;;;;;;;;;;0.00;99.90;;;;;;4974061;28;19953;-63
2021/01/31 08:17:41;;;;;;;;;;;0.10;99.90;;;;;;4977476;28;19922;-62
2021/01/31 08:20:23;;;;;;;;;;;0.10;99.90;;;;;;4961059;28;19929;-63
2021/01/31 08:22:53;;;;;;;;;;;0.20;99.90;;;;;;4977847;28;19929;-63
2021/01/31 08:25:46;;;;;;;;;;;0.30;99.90;;;;;;4976792;28;19926;-62
2021/01/31 08:28:15;;;;;;;;;;;0.30;99.90;;;;;;4977047;28;19993;-63
2021/01/31 08:31:03;;;;;;;;;;;0.30;99.90;;;;;;4959843;28;20493;-63
2021/01/31 08:33:31;;;;;;;;;;;0.30;99.90;;;;;;4977596;28;20326;-64
2021/01/31 08:36:00;;;;;;;;;;;0.50;99.90;;;;;;4977908;28;20304;-62
2021/01/31 08:38:34;;;;;;;;;;;0.50;99.90;;;;;;4978017;28;19933;-62
2021/01/31 08:41:21;;;;;;;;;;;0.50;99.90;;;;;;4978563;28;19929;-63
2021/01/31 08:43:49;;;;;;;;;;;0.60;99.90;;;;;;4979561;28;19922;-64
2021/01/31 08:46:17;;;;;;;;;;;0.50;99.90;;;;;;4976367;28;19922;-64
2021/01/31 08:48:49;;;;;;;;;;;0.50;99.90;;;;;;4977045;28;19922;-63
2021/01/31 08:51:20;;;;;;;;;;;0.60;99.90;;;;;;4976897;28;19921;-62
2021/01/31 08:54:02;;;;;;;;;;;0.60;99.90;;;;;;4976982;28;19922;-61
2021/01/31 08:56:34;;;;;;;;;;;0.70;99.90;;;;;;4977440;28;20293;-62
2021/01/31 08:59:03;;;;;;;;;;;0.60;99.90;;;;;;4977700;28;20004;-62
2021/01/31 09:01:36;;;;;;;;;;;0.60;99.90;;;;;;4970722;28;19954;-61
2021/01/31 09:04:06;;;;;;;;;;;0.70;99.90;;;;;;4951605;28;19930;-61
2021/01/31 09:06:34;;;;;;;;;;;0.80;99.90;;;;;;4969001;28;19925;-62
2021/01/31 09:09:02;;;;;;;;;;;1.00;99.90;;;;;;4968593;28;20653;-62
2021/01/31 09:11:29;;;;;;;;;;;1.20;99.90;;;;;;4969521;28;19921;-62
2021/01/31 09:14:08;;;;;;;;;;;1.10;99.90;;;;;;4968797;28;19932;-62
2021/01/31 09:16:35;;;;;;;;;;;1.20;99.90;;;;;;4967322;28;19977;-62
2021/01/31 09:19:05;;;;;;;;;;;1.40;99.90;;;;;;4968730;28;20595;-62
2021/01/31 09:21:34;;;;;;;;;;;1.50;99.90;;;;;;4973314;28;19926;-62
2021/01/31 09:24:02;;;;;;;;;;;1.50;99.90;;;;;;4968425;28;19926;-62
2021/01/31 09:26:30;;;;;;;;;;;1.50;99.90;;;;;;4968878;28;19926;-61
2021/01/31 09:29:00;;;;;;;;;;;1.60;99.90;;;;;;4950330;28;19930;-62
2021/01/31 09:31:29;;;;;;;;;;;1.60;99.90;;;;;;4967824;28;19926;-62
2021/01/31 09:33:57;;;;;;;;;;;1.60;99.90;;;;;;4968414;28;19957;-61
2021/01/31 09:36:25;;;;;;;;;;;1.40;99.90;;;;;;4969426;28;19926;-62
2021/01/31 09:38:54;;;;;;;;;;;1.30;99.90;;;;;;4969039;28;20546;-62
2021/01/31 09:41:22;;;;;;;;;;;1.50;99.90;;;;;;4968458;28;20251;-63
2021/01/31 09:43:51;;;;;;;;;;;1.70;99.90;;;;;;4971819;28;19926;-62
2021/01/31 09:46:21;;;;;;;;;;;2.10;99.90;;;;;;4974193;28;20366;-62
2021/01/31 09:48:49;;;;;;;;;;;2.10;99.90;;;;;;4970501;28;19926;-62
2021/01/31 09:51:22;;;;;;;;;;;2.10;99.90;;;;;;4968961;28;19988;-62
2021/01/31 09:53:49;;;;;;;;;;;2.30;99.90;;;;;;4969653;28;19965;-62
2021/01/31 09:56:31;;;;;;;;;;;2.40;99.90;;;;;;4970712;28;19933;-61
2021/01/31 09:59:24;;;;;;;;;;;2.50;99.90;;;;;;4983285;28;19926;-62
2021/01/31 10:02:00;;;;;;;;;;;2.50;99.90;;;;;;4984013;28;20270;-64
2021/01/31 10:04:28;;;;;;;;;;;2.30;99.90;;;;;;4977430;28;20413;-62
2021/01/31 10:09:51;;;;;;;;;;;2.40;99.90;;;;;;4977040;28;19926;-62
2021/01/31 10:12:26;;;;;;;;;;;2.70;99.90;;;;;;4978571;28;19941;-65
2021/01/31 10:14:54;;;;;;;;;;;2.80;99.90;;;;;;4981282;28;19929;-63
2021/01/31 10:17:39;;;;;;;;;;;3.40;99.90;;;;;;4961131;28;20058;-63
2021/01/31 10:20:28;;;;;;;;;;;3.70;99.90;;;;;;4988595;28;19922;-64
2021/01/31 10:22:59;;;;;;;;;;;3.70;99.90;;;;;;4983653;28;19945;-62
2021/01/31 10:25:28;;;;;;;;;;;4.00;99.90;;;;;;4978131;28;20333;-62
2021/01/31 10:28:03;;;;;;;;;;;4.20;99.90;;;;;;4985680;28;19945;-62
2021/01/31 10:33:39;;;;;;;;;;;4.30;99.90;;;;;;4983540;28;19930;-64
2021/01/31 10:36:25;;;;;;;;;;;5.00;99.90;;;;;;4982935;28;20270;-63
2021/01/31 10:38:54;;;;;;;;;;;5.20;99.90;;;;;;4983942;28;19949;-62
2021/01/31 10:41:22;;;;;;;;;;;4.40;99.90;;;;;;4985550;28;19960;-62
2021/01/31 10:44:00;;;;;;;;;;;4.80;99.90;;;;;;4982702;28;19969;-62
2021/01/31 10:46:28;;;;;;;;;;;4.30;99.90;;;;;;4968637;28;19953;-64
2021/01/31 10:48:56;;;;;;;;;;;3.70;99.90;;;;;;4960952;29;19922;-63
2021/01/31 10:51:25;;;;;;;;;;;3.60;99.90;;;;;;4960817;29;19931;-62
2021/01/31 10:53:51;;;;;;;;;;;3.90;99.90;;;;;;4960996;29;19961;-63
2021/01/31 10:56:18;;;;;;;;;;;4.20;99.90;;;;;;4960598;29;20301;-63
2021/01/31 10:58:46;;;;;;;;;;;4.20;99.90;;;;;;4960305;29;19922;-62
2021/01/31 11:01:14;;;;;;;;;;;4.50;99.90;;;;;;4958709;28;19922;-62
2021/01/31 11:03:42;;;;;;;;;;;4.40;99.90;;;;;;4959651;29;19923;-63
2021/01/31 11:06:10;;;;;;;;;;;4.40;99.90;;;;;;4959703;29;19969;-65
2021/01/31 11:08:38;;;;;;;;;;;4.40;99.90;;;;;;4960314;29;20362;-65
2021/01/31 11:11:06;;;;;;;;;;;4.40;99.90;;;;;;4959694;29;19973;-62
2021/01/31 11:13:33;;;;;;;;;;;4.20;99.90;;;;;;4959678;29;20367;-62
2021/01/31 11:16:02;;;;;;;;;;;4.30;99.90;;;;;;4958648;28;19926;-62
2021/01/31 11:18:30;;;;;;;;;;;4.10;99.90;;;;;;4959316;29;20416;-62
2021/01/31 11:20:58;;;;;;;;;;;3.80;99.90;;;;;;4959355;29;19957;-64
2021/01/31 11:23:26;;;;;;;;;;;4.10;99.90;;;;;;4959150;29;19922;-61
2021/01/31 11:25:54;;;;;;;;;;;4.40;99.90;;;;;;4959690;28;19923;-62
2021/01/31 11:28:21;;;;;;;;;;;4.50;99.90;;;;;;4958987;29;19993;-63
2021/01/31 11:30:48;;;;;;;;;;;4.10;99.90;;;;;;4960341;28;19933;-62
2021/01/31 11:33:16;;;;;;;;;;;3.90;99.90;;;;;;4943099;29;19930;-65
2021/01/31 11:35:43;;;;;;;;;;;4.00;99.90;;;;;;4961090;29;19928;-63
2021/01/31 11:38:10;;;;;;;;;;;4.00;99.90;;;;;;4960500;29;20009;-62
2021/01/31 11:40:39;;;;;;;;;;;4.10;99.90;;;;;;4959804;29;19926;-63
2021/01/31 11:43:06;;;;;;;;;;;4.00;99.90;;;;;;4943368;29;19922;-62
2021/01/31 11:45:32;;;;;;;;;;;3.90;99.90;;;;;;4960683;28;20066;-62
2021/01/31 11:48:00;;;;;;;;;;;3.80;99.90;;;;;;4962271;29;19957;-62
2021/01/31 11:50:27;;;;;;;;;;;3.80;99.90;;;;;;4961738;28;19926;-62
2021/01/31 11:52:55;;;;;;;;;;;4.10;99.90;;;;;;4943805;29;19958;-62
2021/01/31 11:55:22;;;;;;;;;;;5.50;99.90;;;;;;4962375;29;20021;-62
2021/01/31 11:57:50;;;;;;;;;;;6.80;99.90;;;;;;4961373;29;20382;-62
2021/01/31 12:00:19;;;;;;;;;;;7.80;97.10;;;;;;4959619;28;19926;-62
2021/01/31 12:02:46;;;;;;;;;;;7.60;95.00;;;;;;4959557;28;20010;-62
2021/01/31 12:05:14;;;;;;;;;;;7.60;95.80;;;;;;4960711;29;19922;-62
2021/01/31 12:07:44;;;;;;;;;;;7.70;95.90;;;;;;4961022;29;19934;-62
2021/01/31 12:10:13;;;;;;;;;;;7.60;96.30;;;;;;4960803;29;19922;-62
2021/01/31 12:12:42;;;;;;;;;;;7.10;97.60;;;;;;4959419;29;19928;-62
2021/01/31 12:15:10;;;;;;;;;;;6.10;99.20;;;;;;4959671;28;19922;-62
2021/01/31 12:17:38;;;;;;;;;;;5.60;99.90;;;;;;4959294;28;19926;-62
2021/01/31 12:20:06;;;;;;;;;;;5.50;99.90;;;;;;4959133;29;19922;-62
2021/01/31 12:22:33;;;;;;;;;;;5.70;99.90;;;;;;4958606;29;19945;-62
2021/01/31 12:25:01;;;;;;;;;;;5.50;99.90;;;;;;4959614;29;19929;-65
2021/01/31 12:27:29;;;;;;;;;;;5.50;99.90;;;;;;4942366;29;19926;-62
2021/01/31 12:29:56;;;;;;;;;;;5.60;99.90;;;;;;4960040;29;19945;-65
2021/01/31 12:32:25;;;;;;;;;;;5.70;99.90;;;;;;4958574;28;20490;-62
2021/01/31 12:34:52;;;;;;;;;;;6.30;99.90;;;;;;4959091;29;19945;-62
2021/01/31 12:37:19;;;;;;;;;;;6.70;99.60;;;;;;4958838;29;19965;-62
2021/01/31 12:39:46;;;;;;;;;;;7.00;99.90;;;;;;4959161;29;20026;-62
2021/01/31 12:42:13;;;;;;;;;;;6.90;99.20;;;;;;4959293;29;19929;-65
2021/01/31 12:44:41;;;;;;;;;;;6.70;99.70;;;;;;4959407;28;19929;-62
2021/01/31 12:47:10;;;;;;;;;;;6.30;98.90;;;;;;4957819;28;20303;-63
2021/01/31 12:49:38;;;;;;;;;;;5.80;99.80;;;;;;4961434;28;19998;-63
2021/01/31 12:52:05;;;;;;;;;;;5.40;99.90;;;;;;4968087;29;19922;-63
2021/01/31 12:54:32;;;;;;;;;;;5.30;99.90;;;;;;4970455;29;19922;-63
2021/01/31 12:57:02;;;;;;;;;;;5.50;99.90;;;;;;4970891;29;19926;-63
2021/01/31 12:59:29;;;;;;;;;;;5.30;99.90;;;;;;4959929;29;19957;-63
2021/01/31 13:01:58;;;;;;;;;;;5.00;99.90;;;;;;4957960;28;19958;-63
2021/01/31 13:04:25;;;;;;;;;;;4.60;99.90;;;;;;4958199;29;19968;-63
2021/01/31 13:06:53;;;;;;;;;;;4.50;99.90;;;;;;4958802;29;19922;-62
2021/01/31 13:09:20;;;;;;;;;;;4.40;99.90;;;;;;4957939;29;19922;-63
2021/01/31 13:11:48;;;;;;;;;;;4.70;99.90;;;;;;4957810;29;20366;-62
2021/01/31 13:14:15;;;;;;;;;;;4.70;99.90;;;;;;4958039;29;20009;-62
2021/01/31 13:16:43;;;;;;;;;;;4.60;99.90;;;;;;4956691;28;19929;-62
2021/01/31 13:19:10;;;;;;;;;;;4.40;99.90;;;;;;4957353;29;19926;-64
2021/01/31 13:21:37;;;;;;;;;;;4.10;99.90;;;;;;4957942;28;19930;-62
2021/01/31 13:24:07;;;;;;;;;;;4.00;99.90;;;;;;4958624;29;19922;-62
2021/01/31 13:26:34;;;;;;;;;;;3.90;99.90;;;;;;4958933;29;20361;-65
2021/01/31 13:29:02;;;;;;;;;;;3.80;99.90;;;;;;4959291;28;19938;-63
2021/01/31 13:31:30;;;;;;;;;;;3.70;99.90;;;;;;4958018;28;20351;-62
2021/01/31 13:34:00;;;;;;;;;;;3.80;99.90;;;;;;4958161;29;19922;-62
2021/01/31 13:36:27;;;;;;;;;;;4.10;99.90;;;;;;4958825;29;19930;-62
2021/01/31 13:38:54;;;;;;;;;;;4.50;99.90;;;;;;4958294;29;19930;-63
2021/01/31 13:41:22;;;;;;;;;;;4.60;99.90;;;;;;4940754;29;19922;-62
2021/01/31 13:43:49;;;;;;;;;;;5.00;99.90;;;;;;4957024;29;19923;-62
2021/01/31 13:46:17;;;;;;;;;;;5.30;99.90;;;;;;4956247;28;19969;-62
2021/01/31 13:48:44;;;;;;;;;;;5.70;99.90;;;;;;4958038;28;19923;-65
2021/01/31 13:51:11;;;;;;;;;;;5.60;99.90;;;;;;4958327;29;20351;-62
2021/01/31 13:53:38;;;;;;;;;;;5.70;99.90;;;;;;4957264;29;19929;-64
2021/01/31 13:56:05;;;;;;;;;;;5.20;99.90;;;;;;4958537;29;19930;-62
2021/01/31 13:58:33;;;;;;;;;;;4.90;99.90;;;;;;4957877;28;19922;-63
2021/01/31 14:01:00;;;;;;;;;;;4.60;99.90;;;;;;4956441;28;19997;-62
2021/01/31 14:03:27;;;;;;;;;;;4.00;99.90;;;;;;4953207;29;19923;-63
2021/01/31 14:05:55;;;;;;;;;;;4.30;99.90;;;;;;4957337;29;19923;-62
2021/01/31 14:08:22;;;;;;;;;;;4.20;99.90;;;;;;4957184;29;20041;-62
2021/01/31 14:10:50;;;;;;;;;;;4.50;99.90;;;;;;4957059;29;19922;-63
2021/01/31 14:13:17;;;;;;;;;;;4.50;99.90;;;;;;4957379;28;19970;-62
2021/01/31 14:15:44;;;;;;;;;;;4.50;99.90;;;;;;4970373;28;19990;-63
2021/01/31 14:18:11;;;;;;;;;;;4.40;99.90;;;;;;4968222;29;20040;-61
2021/01/31 14:20:38;;;;;;;;;;;4.00;99.90;;;;;;4942559;29;19922;-61
2021/01/31 14:23:05;;;;;;;;;;;3.60;99.90;;;;;;4960028;29;19923;-62
2021/01/31 14:25:32;;;;;;;;;;;3.80;99.90;;;;;;4942926;29;20266;-62
2021/01/31 14:28:02;;;;;;;;;;;3.60;99.90;;;;;;4960409;29;20342;-62
2021/01/31 14:30:30;;;;;;;;;;;3.20;99.90;;;;;;4963822;28;20457;-63
2021/01/31 14:33:05;;;;;;;;;;;3.20;99.90;;;;;;4979331;28;19922;-61
2021/01/31 14:35:33;;;;;;;;;;;3.40;99.90;;;;;;4979558;28;20357;-63
2021/01/31 14:38:01;;;;;;;;;;;3.20;99.90;;;;;;4979581;28;20382;-62
2021/01/31 14:40:29;;;;;;;;;;;3.10;99.90;;;;;;4980399;28;19932;-62
2021/01/31 14:43:01;;;;;;;;;;;2.80;99.90;;;;;;4979202;28;20005;-62
2021/01/31 14:45:31;;;;;;;;;;;2.50;99.90;;;;;;4962169;28;20349;-63
2021/01/31 14:47:59;;;;;;;;;;;2.50;99.90;;;;;;4978785;28;19925;-62